createdAt,value
2019-04-26T00:04:30.790Z,0.40
2019-04-26T00:09:35.987Z,0.97
2019-04-26T00:14:56.051Z,1.97
2019-04-26T00:19:59.839Z,0.40
2019-04-26T00:25:03.123Z,2.30
2019-04-26T00:30:08.330Z,0.90
2019-04-26T00:35:12.676Z,1.43
2019-04-26T00:40:16.625Z,0.43
2019-04-26T00:45:20.964Z,0.60
2019-04-26T00:50:24.260Z,0.80
2019-04-26T00:55:28.345Z,1.20
2019-04-26T01:00:31.699Z,1.33
2019-04-26T01:05:36.962Z,0.70
2019-04-26T01:10:40.267Z,1.17
2019-04-26T01:15:43.804Z,1.23
2019-04-26T01:20:48.889Z,1.40
2019-04-26T01:26:19.151Z,1.70
2019-04-26T01:31:22.567Z,2.03
2019-04-26T01:36:26.833Z,1.40
2019-04-26T01:41:36.775Z,2.73
2019-04-26T01:46:45.009Z,2.30
2019-04-26T01:52:03.666Z,2.83
2019-04-26T01:57:06.942Z,1.50
2019-04-26T02:02:27.670Z,1.50
2019-04-26T02:07:40.773Z,1.57
2019-04-26T02:12:46.071Z,1.37
2019-04-26T02:17:50.489Z,1.50
2019-04-26T02:23:04.475Z,2.23
2019-04-26T02:28:07.994Z,1.47
2019-04-26T02:33:11.529Z,1.10
2019-04-26T02:38:15.073Z,1.07
2019-04-26T02:43:20.320Z,1.87
2019-04-26T02:48:37.957Z,1.87
2019-04-26T02:53:55.940Z,1.00
2019-04-26T02:59:02.631Z,1.30
2019-04-26T03:04:06.146Z,1.47
2019-04-26T03:09:09.757Z,2.20
2019-04-26T03:14:16.217Z,1.70
2019-04-26T03:19:47.744Z,1.20
2019-04-26T03:25:24.733Z,2.20
2019-04-26T03:30:39.012Z,1.83
2019-04-26T03:36:07.933Z,1.30
2019-04-26T03:41:16.010Z,2.80
2019-04-26T03:46:28.411Z,1.70
2019-04-26T03:52:06.398Z,1.87
2019-04-26T03:57:26.647Z,1.93
2019-04-26T04:02:36.671Z,3.27
2019-04-26T04:07:47.187Z,3.27
2019-04-26T04:12:54.823Z,1.97
2019-04-26T04:18:06.278Z,3.90
2019-04-26T04:23:24.701Z,2.50
2019-04-26T04:28:47.856Z,3.07
2019-04-26T04:33:54.427Z,2.50
2019-04-26T04:39:11.391Z,2.77
2019-04-26T04:44:29.073Z,2.87
2019-04-26T04:49:37.386Z,3.83
2019-04-26T04:54:44.716Z,3.37
2019-04-26T04:59:52.418Z,3.63
2019-04-26T05:05:06.434Z,3.17
2019-04-26T05:10:13.133Z,3.77
2019-04-26T05:15:41.375Z,5.20
2019-04-26T05:21:11.687Z,5.27
2019-04-26T05:26:37.402Z,3.80
2019-04-26T05:31:51.200Z,4.17
2019-04-26T05:37:10.122Z,4.20
2019-04-26T05:42:34.736Z,5.33
2019-04-26T05:48:11.234Z,6.20
2019-04-26T05:53:40.786Z,5.40
2019-04-26T05:59:07.907Z,5.53
2019-04-26T06:04:27.394Z,3.97
2019-04-26T06:09:54.394Z,3.50
2019-04-26T06:15:29.065Z,5.40
2019-04-26T06:20:44.335Z,4.20
2019-04-26T06:26:31.355Z,4.03
2019-04-26T06:31:37.959Z,6.23
2019-04-26T06:36:55.982Z,5.43
2019-04-26T06:42:30.890Z,6.23
2019-04-26T06:47:47.887Z,7.43
2019-04-26T06:53:06.281Z,6.30
2019-04-26T06:58:20.274Z,6.43
2019-04-26T07:03:29.428Z,5.70
2019-04-26T07:08:42.015Z,7.23
2019-04-26T07:14:08.220Z,8.93
2019-04-26T07:19:20.923Z,9.83
2019-04-26T07:24:34.831Z,7.47
2019-04-26T07:29:47.777Z,7.77
2019-04-26T07:35:14.743Z,7.97
2019-04-26T07:40:34.606Z,8.03
2019-04-26T07:46:01.338Z,5.23
2019-04-26T07:51:23.073Z,7.63
2019-04-26T07:56:36.043Z,6.67
2019-04-26T08:02:11.899Z,6.00
2019-04-26T08:07:21.208Z,4.73
2019-04-26T08:12:27.894Z,4.80
2019-04-26T08:17:34.521Z,5.53
2019-04-26T08:22:39.435Z,4.90
2019-04-26T08:27:44.425Z,4.27
2019-04-26T08:32:54.199Z,5.30
2019-04-26T08:38:00.626Z,5.23
2019-04-26T08:43:22.620Z,4.57
2019-04-26T08:48:46.569Z,5.97
2019-04-26T08:53:50.711Z,4.87
2019-04-26T08:58:57.169Z,5.03
2019-04-26T09:04:15.793Z,4.53
2019-04-26T09:09:23.058Z,6.83
2019-04-26T09:14:29.489Z,8.00
2019-04-26T09:19:32.787Z,11.47
2019-04-26T09:24:37.721Z,14.60
2019-04-26T09:29:54.933Z,16.13
2019-04-26T09:35:01.444Z,13.97
2019-04-26T09:40:10.608Z,11.37
2019-04-26T09:45:12.957Z,9.23
2019-04-26T09:50:20.789Z,6.30
2019-04-26T09:55:34.788Z,8.00
2019-04-26T10:00:30.764Z,7.17
2019-04-26T10:05:34.315Z,6.40
2019-04-26T10:10:38.335Z,5.80
2019-04-26T10:16:02.695Z,5.13
2019-04-26T10:21:03.476Z,5.40
2019-04-26T10:26:16.365Z,7.20
2019-04-26T10:31:21.331Z,6.87
2019-04-26T10:36:26.232Z,5.50
2019-04-26T10:41:30.324Z,5.30
2019-04-26T10:46:33.927Z,3.90
2019-04-26T10:51:41.956Z,5.50
2019-04-26T10:56:48.135Z,5.20
2019-04-26T11:01:51.489Z,5.20
2019-04-26T11:06:58.135Z,6.13
2019-04-26T11:11:59.991Z,5.17
2019-04-26T11:17:03.753Z,6.90
2019-04-26T11:22:07.285Z,7.20
2019-04-26T11:27:13.015Z,7.27
2019-04-26T11:32:16.653Z,6.30
2019-04-26T11:37:20.008Z,5.97
2019-04-26T11:42:25.380Z,5.60
2019-04-26T11:47:28.871Z,4.90
2019-04-26T11:52:36.003Z,5.27
2019-04-26T11:57:43.772Z,4.10
2019-04-26T12:02:46.381Z,5.13
2019-04-26T12:07:55.026Z,4.67
2019-04-26T12:13:05.491Z,6.67
2019-04-26T12:18:05.505Z,5.33
2019-04-26T12:23:08.916Z,4.30
2019-04-26T12:28:12.466Z,4.13
2019-04-26T12:33:16.028Z,5.00
2019-04-26T12:38:24.121Z,3.63
2019-04-26T12:43:26.236Z,4.67
2019-04-26T12:48:29.852Z,5.23
2019-04-26T12:53:33.505Z,4.97
2019-04-26T12:58:38.162Z,5.77
2019-04-26T13:03:43.113Z,4.43
2019-04-26T13:08:47.186Z,6.33
2019-04-26T13:13:53.181Z,6.10
2019-04-26T13:18:59.111Z,5.07
2019-04-26T13:24:04.537Z,4.63
2019-04-26T13:29:10.974Z,5.63
2019-04-26T13:34:16.030Z,4.63
2019-04-26T13:39:22.359Z,4.70
2019-04-26T13:44:41.713Z,6.70
2019-04-26T13:49:48.277Z,4.23
2019-04-26T13:55:17.647Z,3.00
2019-04-26T14:00:22.818Z,5.97
2019-04-26T14:05:26.375Z,4.73
2019-04-26T14:10:31.546Z,7.00
2019-04-26T14:16:05.454Z,5.23
2019-04-26T14:21:08.728Z,4.03
2019-04-26T14:26:16.131Z,5.87
2019-04-26T14:31:19.427Z,5.70
2019-04-26T14:36:26.803Z,4.00
2019-04-26T14:41:28.056Z,6.63
2019-04-26T14:46:31.786Z,4.63
2019-04-26T14:51:35.371Z,5.67
2019-04-26T14:56:51.508Z,4.57
2019-04-26T15:01:45.856Z,3.97
2019-04-26T15:06:52.012Z,5.30
2019-04-26T15:12:00.914Z,8.10
2019-04-26T15:17:02.771Z,3.33
2019-04-26T15:22:10.441Z,3.83
2019-04-26T15:27:11.540Z,2.37
2019-04-26T15:32:15.372Z,6.03
2019-04-26T15:37:20.190Z,5.17
2019-04-26T15:42:29.241Z,4.43
2019-04-26T15:47:52.242Z,4.10
2019-04-26T15:52:55.562Z,5.03
2019-04-26T15:58:02.669Z,4.17
2019-04-26T16:03:07.385Z,5.83
2019-04-26T16:08:12.970Z,4.30
2019-04-26T16:13:21.044Z,6.37
2019-04-26T16:18:22.386Z,3.67
2019-04-26T16:23:38.144Z,4.83
2019-04-26T16:28:33.331Z,4.13
2019-04-26T16:33:47.023Z,4.47
2019-04-26T16:38:56.021Z,5.10
2019-04-26T16:43:55.785Z,5.53
2019-04-26T16:49:04.120Z,6.87
2019-04-26T16:54:08.573Z,5.47
2019-04-26T16:59:14.365Z,4.10
2019-04-26T17:04:20.044Z,5.20
2019-04-26T17:09:22.995Z,4.83
2019-04-26T17:14:25.893Z,4.30
2019-04-26T17:19:29.758Z,2.70
2019-04-26T17:24:47.440Z,5.63
2019-04-26T17:29:50.722Z,5.37
2019-04-26T17:34:54.574Z,5.27
2019-04-26T17:39:57.990Z,4.97
2019-04-26T17:45:03.918Z,6.90
2019-04-26T17:50:07.478Z,5.30
2019-04-26T17:55:14.005Z,5.60
2019-04-26T18:00:20.887Z,5.53
2019-04-26T18:05:39.971Z,5.90
2019-04-26T18:10:35.499Z,3.43
2019-04-26T18:15:39.918Z,4.57
2019-04-26T18:21:02.963Z,5.53
2019-04-26T18:26:09.225Z,5.37
2019-04-26T18:31:17.715Z,4.67
2019-04-26T18:36:19.449Z,5.03
2019-04-26T18:41:28.560Z,6.17
2019-04-26T18:46:31.883Z,5.00
2019-04-26T18:51:34.999Z,6.60
2019-04-26T18:56:40.668Z,7.03
2019-04-26T19:01:43.952Z,11.73
2019-04-26T19:06:47.266Z,5.60
2019-04-26T19:11:52.822Z,6.47
2019-04-26T19:17:09.033Z,8.90
2019-04-26T19:22:15.679Z,10.63
2019-04-26T19:27:20.904Z,10.60
2019-04-26T19:32:24.263Z,12.53
2019-04-26T19:37:30.472Z,12.13
2019-04-26T19:42:32.922Z,10.70
2019-04-26T19:47:39.470Z,7.07
2019-04-26T19:53:01.575Z,11.13
2019-04-26T19:58:09.646Z,7.40
2019-04-26T20:03:16.899Z,7.07
2019-04-26T20:08:21.534Z,9.20
2019-04-26T20:13:25.828Z,11.53
2019-04-26T20:18:34.470Z,11.60
2019-04-26T20:23:38.391Z,13.10
2019-04-26T20:28:39.684Z,10.70
2019-04-26T20:33:43.183Z,9.03
2019-04-26T20:38:47.549Z,9.97
2019-04-26T20:44:04.483Z,11.80
2019-04-26T20:48:56.221Z,11.27
2019-04-26T20:53:59.747Z,7.93
2019-04-26T20:59:03.043Z,7.90
2019-04-26T21:04:06.756Z,7.23
2019-04-26T21:09:16.645Z,13.17
2019-04-26T21:14:21.352Z,8.97
2019-04-26T21:19:24.975Z,9.57
2019-04-26T21:24:32.249Z,7.67
2019-04-26T21:29:43.542Z,7.20
2019-04-26T21:34:50.812Z,6.70
2019-04-26T21:40:06.706Z,8.23
2019-04-26T21:45:14.466Z,9.80
2019-04-26T21:50:35.822Z,5.83
2019-04-26T21:55:54.685Z,5.63
2019-04-26T22:06:33.481Z,6.47
2019-04-26T22:11:44.510Z,4.17
2019-04-26T22:17:02.011Z,7.67
2019-04-26T22:22:28.985Z,4.57
2019-04-26T22:27:38.253Z,6.03
2019-04-26T22:32:48.489Z,7.90
2019-04-26T22:37:49.954Z,6.90
2019-04-26T22:48:29.640Z,3.30
2019-04-26T22:53:33.168Z,5.33
2019-04-26T22:58:36.722Z,4.87
2019-04-26T23:03:41.173Z,6.30
2019-04-26T23:08:45.349Z,3.63
2019-04-26T23:13:50.337Z,3.80
2019-04-26T23:18:58.198Z,4.23
2019-04-26T23:24:03.328Z,4.77
2019-04-26T23:29:08.576Z,5.63
2019-04-26T23:34:12.028Z,3.13
2019-04-26T23:39:17.298Z,2.83
2019-04-26T23:44:20.605Z,2.70
2019-04-26T23:49:25.325Z,2.80
2019-04-26T23:54:32.302Z,5.07
2019-04-26T23:59:33.828Z,4.83
